Aviation Digital Data Service (ADDS)

Output produced by METARs form (0148 UTC 01 September 2015)
found at http://aviationweather.gov/adds/metars/
 
KPVD 312320Z 0100/0124 27006KT P6SM SKC 
     FM010900 33004KT P6SM SKC 
     FM011600 05004KT P6SM FEW250 
     FM011700 12004KT P6SM FEW250 
     FM012100 17008KT P6SM FEW250